createdAt,value
2019-01-16T00:00:16.489Z,101446.64
2019-01-16T00:03:07.834Z,101445.05
2019-01-16T00:06:00.192Z,101440.81
2019-01-16T00:08:47.350Z,101436.29
2019-01-16T00:11:47.412Z,101431.02
2019-01-16T00:14:34.368Z,101431.72
2019-01-16T00:17:31.753Z,101429.31
2019-01-16T00:20:38.002Z,101422.66
2019-01-16T00:23:35.633Z,101420.09
2019-01-16T00:26:33.080Z,101416.44
2019-01-16T00:29:20.104Z,101415.03
2019-01-16T00:32:08.864Z,101408.37
2019-01-16T00:34:55.900Z,101413.06
2019-01-16T00:37:38.214Z,101414.65
2019-01-16T00:40:26.369Z,101414.06
2019-01-16T00:43:23.904Z,101410.22
2019-01-16T00:46:14.889Z,101400.97
2019-01-16T00:49:18.044Z,101401.34
2019-01-16T00:52:12.392Z,101398.08
2019-01-16T00:55:02.980Z,101391.18
2019-01-16T00:57:41.622Z,101399.28
2019-01-16T01:00:34.118Z,101394.97
2019-01-16T01:03:28.440Z,101389.90
2019-01-16T01:06:34.922Z,101394.78
2019-01-16T01:09:14.842Z,101391.94
2019-01-16T01:12:05.764Z,101391.64
2019-01-16T01:14:52.659Z,101379.00
2019-01-16T01:17:37.777Z,101375.25
2019-01-16T01:20:25.027Z,101381.86
2019-01-16T01:23:25.486Z,101377.02
2019-01-16T01:26:16.500Z,101370.25
2019-01-16T01:28:59.661Z,101374.67
2019-01-16T01:31:48.031Z,101370.80
2019-01-16T01:34:36.237Z,101357.00
2019-01-16T01:37:23.690Z,101369.03
2019-01-16T01:40:10.385Z,101353.42
2019-01-16T01:42:58.747Z,101351.04
2019-01-16T01:45:45.567Z,101353.68
2019-01-16T01:48:40.142Z,101345.55
2019-01-16T01:51:19.196Z,101342.25
2019-01-16T01:54:12.981Z,101333.94
2019-01-16T01:56:56.340Z,101336.64
2019-01-16T01:59:35.631Z,101334.84
2019-01-16T02:02:18.268Z,101338.72
2019-01-16T02:04:59.127Z,101339.55
2019-01-16T02:07:59.552Z,101336.41
2019-01-16T02:10:42.794Z,101338.34
2019-01-16T02:13:40.862Z,101330.73
2019-01-16T02:16:28.868Z,101329.38
2019-01-16T02:19:17.650Z,101325.52
2019-01-16T02:22:12.251Z,101315.58
2019-01-16T02:24:59.357Z,101321.08
2019-01-16T02:28:05.497Z,101312.59
2019-01-16T02:30:50.112Z,101310.05
2019-01-16T02:33:40.238Z,101310.32
2019-01-16T02:36:28.532Z,101309.42
2019-01-16T02:39:11.392Z,101303.52
2019-01-16T02:42:05.931Z,101303.64
2019-01-16T02:44:56.414Z,101302.77
2019-01-16T02:47:43.392Z,101301.73
2019-01-16T02:50:28.982Z,101296.91
2019-01-16T02:53:26.266Z,101278.05
2019-01-16T02:56:26.736Z,101278.84
2019-01-16T02:59:19.393Z,101270.09
2019-01-16T03:02:07.454Z,101276.95
2019-01-16T03:05:07.803Z,101267.06
2019-01-16T03:08:05.444Z,101262.56
2019-01-16T03:10:59.932Z,101258.47
2019-01-16T03:13:45.621Z,101257.30
2019-01-16T03:16:42.827Z,101253.61
2019-01-16T03:19:39.315Z,101257.27
2019-01-16T03:22:36.586Z,101252.34
2019-01-16T03:25:35.514Z,101246.95
2019-01-16T03:28:22.477Z,101243.42
2019-01-16T03:31:16.495Z,101240.76
2019-01-16T03:34:07.308Z,101239.16
2019-01-16T03:37:13.931Z,101235.86
2019-01-16T03:40:01.280Z,101235.56
2019-01-16T03:42:40.202Z,101231.00
2019-01-16T03:45:17.096Z,101225.34
2019-01-16T03:47:56.927Z,101219.58
2019-01-16T03:50:45.944Z,101218.31
2019-01-16T03:53:33.316Z,101215.39
2019-01-16T03:56:14.419Z,101211.05
2019-01-16T03:59:01.345Z,101208.33
2019-01-16T04:01:58.671Z,101205.10
2019-01-16T04:04:46.155Z,101206.44
2019-01-16T04:07:40.168Z,101196.95
2019-01-16T04:10:28.377Z,101195.98
2019-01-16T04:13:16.376Z,101197.94
2019-01-16T04:16:07.417Z,101189.00
2019-01-16T04:19:02.650Z,101179.45
2019-01-16T04:21:49.730Z,101187.13
2019-01-16T04:24:35.698Z,101186.23
2019-01-16T04:27:27.745Z,101174.17
2019-01-16T04:30:11.118Z,101170.27
2019-01-16T04:32:59.151Z,101168.52
2019-01-16T04:35:47.245Z,101161.58
2019-01-16T04:38:32.156Z,101153.36
2019-01-16T04:41:23.301Z,101151.42
2019-01-16T04:44:14.194Z,101154.20
2019-01-16T04:47:01.102Z,101143.09
2019-01-16T04:49:53.432Z,101149.72
2019-01-16T04:52:47.653Z,101143.13
2019-01-16T04:55:34.645Z,101137.80
2019-01-16T04:58:27.164Z,101140.77
2019-01-16T05:01:15.399Z,101143.28
2019-01-16T05:04:02.500Z,101138.94
2019-01-16T05:06:45.753Z,101134.95
2019-01-16T05:09:32.561Z,101130.17
2019-01-16T05:12:29.658Z,101123.23
2019-01-16T05:15:24.281Z,101102.79
2019-01-16T05:18:21.277Z,101108.17
2019-01-16T05:21:07.872Z,101109.02
2019-01-16T05:24:05.043Z,101106.98
2019-01-16T05:26:52.273Z,101099.95
2019-01-16T05:29:39.918Z,101104.87
2019-01-16T05:32:24.677Z,101105.59
2019-01-16T05:35:12.643Z,101097.95
2019-01-16T05:38:06.093Z,101095.77
2019-01-16T05:41:03.228Z,101097.17
2019-01-16T05:44:06.944Z,101097.25
2019-01-16T05:47:00.876Z,101097.73
2019-01-16T05:50:07.313Z,101093.09
2019-01-16T05:52:54.132Z,101083.84
2019-01-16T05:55:41.197Z,101093.36
2019-01-16T05:58:35.229Z,101087.50
2019-01-16T06:01:29.226Z,101089.69
2019-01-16T06:04:26.463Z,101080.70
2019-01-16T06:07:13.983Z,101077.61
2019-01-16T06:10:05.242Z,101076.16
2019-01-16T06:12:55.981Z,101083.62
2019-01-16T06:15:42.832Z,101079.58
2019-01-16T06:18:32.099Z,101074.89
2019-01-16T06:21:17.846Z,101075.63
2019-01-16T06:24:04.484Z,101081.91
2019-01-16T06:26:52.731Z,101071.11
2019-01-16T06:29:41.691Z,101049.38
2019-01-16T06:32:45.138Z,101045.81
2019-01-16T06:35:29.764Z,101055.50
2019-01-16T06:38:13.091Z,101050.14
2019-01-16T06:41:05.109Z,101038.46
2019-01-16T06:44:02.055Z,101048.05
2019-01-16T06:46:59.736Z,101046.78
2019-01-16T06:49:46.817Z,101041.67
2019-01-16T06:52:30.689Z,101034.59
2019-01-16T06:55:11.103Z,101025.64
2019-01-16T06:58:07.371Z,101032.88
2019-01-16T07:00:54.233Z,101032.01
2019-01-16T07:03:40.969Z,101041.45
2019-01-16T07:06:21.201Z,101039.02
2019-01-16T07:09:12.303Z,101042.23
2019-01-16T07:12:12.262Z,101032.36
2019-01-16T07:14:58.807Z,101021.65
2019-01-16T07:17:46.238Z,101019.47
2019-01-16T07:20:34.079Z,101007.30
2019-01-16T07:23:19.063Z,101007.20
2019-01-16T07:26:02.380Z,101002.17
2019-01-16T07:28:44.505Z,101004.27
2019-01-16T07:31:29.963Z,100996.30
2019-01-16T07:34:25.064Z,101003.17
2019-01-16T07:37:31.953Z,101008.49
2019-01-16T07:40:22.965Z,101011.70
2019-01-16T07:43:09.879Z,101016.96
2019-01-16T07:45:57.925Z,101018.06
2019-01-16T07:48:48.912Z,101011.22
2019-01-16T07:51:36.905Z,101002.86
2019-01-16T07:54:33.829Z,100992.87
2019-01-16T07:57:20.265Z,100991.62
2019-01-16T08:00:13.790Z,100993.55
2019-01-16T08:03:00.598Z,101001.34
2019-01-16T08:05:47.669Z,101000.51
2019-01-16T08:08:33.111Z,101010.42
2019-01-16T08:11:19.778Z,101009.46
2019-01-16T08:14:07.779Z,101016.59
2019-01-16T08:17:08.115Z,101015.48
2019-01-16T08:20:05.063Z,101013.66
2019-01-16T08:23:00.735Z,101007.22
2019-01-16T08:25:45.339Z,100999.72
2019-01-16T08:28:36.585Z,101001.48
2019-01-16T08:31:25.905Z,100993.22
2019-01-16T08:34:13.036Z,100986.34
2019-01-16T08:37:01.068Z,100992.94
2019-01-16T08:39:51.421Z,100985.66
2019-01-16T08:42:47.277Z,100983.27
2019-01-16T08:45:38.379Z,100978.85
2019-01-16T08:48:25.693Z,100981.67
2019-01-16T08:51:13.027Z,100985.44
2019-01-16T08:54:00.263Z,100985.30
2019-01-16T08:57:00.873Z,100980.88
2019-01-16T08:59:44.610Z,100976.39
2019-01-16T09:02:31.281Z,100970.81
2019-01-16T09:05:18.144Z,100965.49
2019-01-16T09:08:21.854Z,100964.63
2019-01-16T09:11:19.573Z,100964.86
2019-01-16T09:14:10.601Z,100947.14
2019-01-16T09:16:57.457Z,100948.11
2019-01-16T09:19:50.506Z,100944.53
2019-01-16T09:22:37.224Z,100947.97
2019-01-16T09:25:52.509Z,100945.73
2019-01-16T09:28:39.270Z,100941.54
2019-01-16T09:31:27.262Z,100949.08
2019-01-16T09:34:21.281Z,100936.83
2019-01-16T09:37:09.285Z,100935.19
2019-01-16T09:40:12.637Z,100936.36
2019-01-16T09:42:59.076Z,100945.55
2019-01-16T09:45:45.669Z,100949.83
2019-01-16T09:48:44.275Z,100941.65
2019-01-16T09:51:29.527Z,100948.69
2019-01-16T09:54:17.542Z,100941.84
2019-01-16T09:57:04.543Z,100939.83
2019-01-16T10:00:01.886Z,100937.75
2019-01-16T10:02:53.213Z,100922.28
2019-01-16T10:05:46.991Z,100921.69
2019-01-16T10:08:25.032Z,100903.42
2019-01-16T10:11:11.739Z,100900.71
2019-01-16T10:13:56.883Z,100892.89
2019-01-16T10:16:36.688Z,100902.92
2019-01-16T10:19:30.997Z,100894.72
2019-01-16T10:22:10.925Z,100880.82
2019-01-16T10:24:53.238Z,100882.08
2019-01-16T10:27:37.610Z,100882.42
2019-01-16T10:30:25.177Z,100876.23
2019-01-16T10:33:06.705Z,100876.50
2019-01-16T10:35:53.571Z,100874.66
2019-01-16T10:38:50.629Z,100873.94
2019-01-16T10:41:37.586Z,100878.25
2019-01-16T10:44:24.359Z,100878.01
2019-01-16T10:47:27.694Z,100873.08
2019-01-16T10:50:16.819Z,100862.15
2019-01-16T10:53:03.878Z,100857.83
2019-01-16T10:56:04.256Z,100845.00
2019-01-16T10:58:41.935Z,100840.56
2019-01-16T11:01:20.610Z,100832.05
2019-01-16T11:04:03.337Z,100824.23
2019-01-16T11:06:50.340Z,100826.80
2019-01-16T11:09:43.808Z,100821.28
2019-01-16T11:12:28.822Z,100807.97
2019-01-16T11:15:22.642Z,100797.31
2019-01-16T11:18:26.044Z,100791.49
2019-01-16T11:21:12.835Z,100778.77
2019-01-16T11:24:09.805Z,100767.09
2019-01-16T11:26:56.488Z,100761.48
2019-01-16T11:29:56.641Z,100762.27
2019-01-16T11:32:38.280Z,100751.01
2019-01-16T11:35:26.912Z,100742.36
2019-01-16T11:38:13.846Z,100735.34
2019-01-16T11:41:00.239Z,100734.62
2019-01-16T11:43:48.242Z,100725.55
2019-01-16T11:46:42.400Z,100725.37
2019-01-16T11:49:30.627Z,100715.70
2019-01-16T11:52:25.492Z,100712.36
2019-01-16T11:55:28.914Z,100714.98
2019-01-16T11:58:15.551Z,100709.02
2019-01-16T12:01:04.676Z,100702.28
2019-01-16T12:04:08.028Z,100697.34
2019-01-16T12:07:05.324Z,100692.84
2019-01-16T12:09:55.522Z,100686.02
2019-01-16T12:12:35.571Z,100681.10
2019-01-16T12:15:15.026Z,100682.92
2019-01-16T12:18:01.437Z,100685.73
2019-01-16T12:20:58.609Z,100678.12
2019-01-16T12:23:42.188Z,100669.37
2019-01-16T12:26:29.100Z,100660.56
2019-01-16T12:29:16.028Z,100635.61
2019-01-16T12:32:12.809Z,100639.67
2019-01-16T12:34:59.756Z,100629.23
2019-01-16T12:37:47.097Z,100614.64
2019-01-16T12:40:35.105Z,100611.63
2019-01-16T12:43:22.270Z,100620.83
2019-01-16T12:46:23.036Z,100624.77
2019-01-16T12:49:06.021Z,100616.66
2019-01-16T12:51:57.169Z,100620.80
2019-01-16T12:54:48.002Z,100603.96
2019-01-16T12:57:36.174Z,100614.47
2019-01-16T13:00:25.472Z,100599.37
2019-01-16T13:03:16.933Z,100601.70
2019-01-16T13:06:10.877Z,100600.36
2019-01-16T13:09:13.814Z,100595.39
2019-01-16T13:12:19.790Z,100577.62
2019-01-16T13:15:09.729Z,100570.95
2019-01-16T13:18:09.508Z,100564.86
2019-01-16T13:20:55.996Z,100555.59
2019-01-16T13:23:43.601Z,100549.69
2019-01-16T13:26:37.399Z,100531.05
2019-01-16T13:29:37.376Z,100534.09
2019-01-16T13:32:27.436Z,100528.34
2019-01-16T13:35:14.863Z,100527.44
2019-01-16T13:37:59.349Z,100525.03
2019-01-16T13:40:47.354Z,100512.98
2019-01-16T13:43:34.120Z,100512.02
2019-01-16T13:46:40.822Z,100513.19
2019-01-16T13:49:20.134Z,100514.30
2019-01-16T13:52:11.422Z,100526.38
2019-01-16T13:55:15.594Z,100508.62
2019-01-16T13:58:02.218Z,100514.09
2019-01-16T14:00:50.236Z,100492.86
2019-01-16T14:03:34.923Z,100502.40
2019-01-16T14:06:40.896Z,100496.46
2019-01-16T14:09:43.215Z,100494.47
2019-01-16T14:12:37.181Z,100502.94
2019-01-16T14:15:30.744Z,100493.53
2019-01-16T14:18:27.477Z,100493.68
2019-01-16T14:21:13.917Z,100495.20
2019-01-16T14:24:00.612Z,100490.08
2019-01-16T14:26:51.728Z,100480.06
2019-01-16T14:29:37.247Z,100471.45
2019-01-16T14:32:25.185Z,100462.41
2019-01-16T14:35:11.668Z,100482.28
2019-01-16T14:37:58.199Z,100472.45
2019-01-16T14:41:04.666Z,100473.11
2019-01-16T14:43:52.045Z,100468.89
2019-01-16T14:46:43.298Z,100462.95
2019-01-16T14:49:30.354Z,100459.64
2019-01-16T14:52:19.147Z,100448.16
2019-01-16T14:55:07.802Z,100446.20
2019-01-16T14:58:02.162Z,100449.48
2019-01-16T15:00:50.430Z,100451.24
2019-01-16T15:03:44.441Z,100446.52
2019-01-16T15:06:35.192Z,100444.25
2019-01-16T15:09:40.061Z,100449.27
2019-01-16T15:12:46.394Z,100436.52
2019-01-16T15:15:49.606Z,100424.53
2019-01-16T15:18:41.022Z,100428.19
2019-01-16T15:21:27.846Z,100429.48
2019-01-16T15:24:18.906Z,100432.08
2019-01-16T15:27:00.750Z,100435.79
2019-01-16T15:29:48.792Z,100428.89
2019-01-16T15:32:40.273Z,100421.72
2019-01-16T15:35:27.513Z,100421.53
2019-01-16T15:38:24.639Z,100410.13
2019-01-16T15:41:18.502Z,100417.59
2019-01-16T15:44:06.917Z,100414.59
2019-01-16T15:46:51.239Z,100402.97
2019-01-16T15:49:38.213Z,100397.94
2019-01-16T15:52:28.046Z,100399.77
2019-01-16T15:55:07.780Z,100397.67
2019-01-16T15:57:54.860Z,100396.13
2019-01-16T16:00:38.532Z,100386.83
2019-01-16T16:03:33.024Z,100389.13
2019-01-16T16:06:19.624Z,100386.59
2019-01-16T16:09:13.944Z,100380.02
2019-01-16T16:12:01.732Z,100381.88
2019-01-16T16:14:48.420Z,100376.19
2019-01-16T16:17:35.276Z,100375.65
2019-01-16T16:20:24.492Z,100375.31
2019-01-16T16:23:18.548Z,100375.42
2019-01-16T16:26:12.669Z,100371.37
2019-01-16T16:29:09.638Z,100357.86
2019-01-16T16:31:56.578Z,100358.00
2019-01-16T16:34:44.615Z,100362.71
2019-01-16T16:37:38.990Z,100339.72
2019-01-16T16:40:28.069Z,100334.38
2019-01-16T16:43:15.153Z,100334.70
2019-01-16T16:46:00.651Z,100330.69
2019-01-16T16:48:41.608Z,100334.17
2019-01-16T16:51:28.912Z,100333.30
2019-01-16T16:54:20.046Z,100328.54
2019-01-16T16:57:06.715Z,100320.70
2019-01-16T16:59:47.546Z,100325.47
2019-01-16T17:02:36.522Z,100314.94
2019-01-16T17:05:31.946Z,100318.35
2019-01-16T17:08:23.093Z,100311.69
2019-01-16T17:11:17.116Z,100316.81
2019-01-16T17:14:14.378Z,100329.05
2019-01-16T17:17:08.291Z,100303.19
2019-01-16T17:19:59.110Z,100303.70
2019-01-16T17:22:54.994Z,100297.36
2019-01-16T17:25:40.770Z,100295.64
2019-01-16T17:28:44.498Z,100296.02
2019-01-16T17:31:27.586Z,100297.70
2019-01-16T17:34:20.020Z,100301.34
2019-01-16T17:37:08.307Z,100301.28
2019-01-16T17:39:52.312Z,100288.63
2019-01-16T17:42:43.436Z,100303.41
2019-01-16T17:45:31.560Z,100291.95
2019-01-16T17:48:34.780Z,100287.38
2019-01-16T17:51:31.698Z,100274.94
2019-01-16T17:54:17.910Z,100273.03
2019-01-16T17:56:58.599Z,100264.95
2019-01-16T17:59:55.144Z,100263.16
2019-01-16T18:02:49.005Z,100257.78
2019-01-16T18:05:37.041Z,100249.61
2019-01-16T18:08:24.674Z,100243.81
2019-01-16T18:11:12.430Z,100245.20
2019-01-16T18:14:04.339Z,100228.86
2019-01-16T18:17:07.730Z,100227.56
2019-01-16T18:19:54.770Z,100225.49
2019-01-16T18:22:45.304Z,100234.50
2019-01-16T18:25:27.832Z,100232.55
2019-01-16T18:28:14.522Z,100225.53
2019-01-16T18:31:11.876Z,100225.22
2019-01-16T18:33:58.525Z,100220.91
2019-01-16T18:36:52.779Z,100220.56
2019-01-16T18:39:40.822Z,100221.23
2019-01-16T18:42:23.983Z,100223.58
2019-01-16T18:45:02.967Z,100216.60
2019-01-16T18:47:45.748Z,100228.74
2019-01-16T18:50:31.417Z,100215.94
2019-01-16T18:53:13.928Z,100213.94
2019-01-16T18:56:05.401Z,100205.60
2019-01-16T18:58:42.308Z,100203.92
2019-01-16T19:01:48.653Z,100199.61
2019-01-16T19:04:51.890Z,100205.28
2019-01-16T19:07:38.753Z,100205.28
2019-01-16T19:10:25.915Z,100207.91
2019-01-16T19:13:15.458Z,100206.27
2019-01-16T19:16:12.993Z,100204.23
2019-01-16T19:19:00.308Z,100206.27
2019-01-16T19:21:49.958Z,100195.61
2019-01-16T19:24:44.259Z,100200.94
2019-01-16T19:27:32.276Z,100196.21
2019-01-16T19:30:20.353Z,100195.42
2019-01-16T19:32:55.192Z,100185.91
2019-01-16T19:35:41.481Z,100199.85
2019-01-16T19:38:29.750Z,100179.88
2019-01-16T19:41:12.633Z,100181.88
2019-01-16T19:44:00.795Z,100178.51
2019-01-16T19:46:48.359Z,100176.47
2019-01-16T19:49:35.049Z,100176.47
2019-01-16T19:52:22.575Z,100168.69
2019-01-16T19:55:20.001Z,100176.20
2019-01-16T19:57:59.868Z,100178.71
2019-01-16T20:00:46.559Z,100160.58
2019-01-16T20:03:34.126Z,100165.36
2019-01-16T20:06:25.176Z,100169.08
2019-01-16T20:09:13.199Z,100168.89
2019-01-16T20:12:04.972Z,100160.23
2019-01-16T20:14:51.390Z,100168.22
2019-01-16T20:17:33.593Z,100165.52
2019-01-16T20:20:24.412Z,100172.83
2019-01-16T20:23:12.465Z,100164.42
2019-01-16T20:26:06.482Z,100150.95
2019-01-16T20:28:53.155Z,100154.25
2019-01-16T20:31:39.917Z,100164.23
2019-01-16T20:34:28.017Z,100148.96
2019-01-16T20:37:18.847Z,100146.97
2019-01-16T20:40:09.871Z,100150.30
2019-01-16T20:43:15.799Z,100145.66
2019-01-16T20:46:03.857Z,100138.66
2019-01-16T20:48:45.684Z,100141.98
2019-01-16T20:51:31.909Z,100151.66
2019-01-16T20:54:09.802Z,100133.69
2019-01-16T20:57:16.155Z,100142.97
2019-01-16T21:00:02.801Z,100144.30
2019-01-16T21:02:49.555Z,100131.94
2019-01-16T21:05:46.520Z,100130.26
2019-01-16T21:08:37.361Z,100126.27
2019-01-16T21:11:19.953Z,100132.61
2019-01-16T21:13:56.726Z,100135.93
2019-01-16T21:16:48.828Z,100138.39
2019-01-16T21:19:39.657Z,100135.88
2019-01-16T21:22:26.924Z,100129.91
2019-01-16T21:25:09.287Z,100132.61
2019-01-16T21:28:06.113Z,100130.22
2019-01-16T21:30:53.251Z,100120.47
2019-01-16T21:33:56.163Z,100119.84
2019-01-16T21:36:36.199Z,100120.83
2019-01-16T21:39:30.757Z,100122.23
2019-01-16T21:42:18.817Z,100126.97
2019-01-16T21:45:05.662Z,100128.27
2019-01-16T21:47:57.082Z,100130.61
2019-01-16T21:50:47.934Z,100123.30
2019-01-16T21:53:36.239Z,100128.97
2019-01-16T21:56:24.527Z,100124.97
2019-01-16T21:59:06.627Z,100125.60
2019-01-16T22:01:54.305Z,100130.61
2019-01-16T22:04:38.237Z,100131.66
2019-01-16T22:07:30.505Z,100151.43
2019-01-16T22:10:18.066Z,100153.27
2019-01-16T22:12:57.445Z,100149.97
2019-01-16T22:15:48.673Z,100157.27
2019-01-16T22:18:40.815Z,100157.27
2019-01-16T22:21:25.710Z,100153.62
2019-01-16T22:24:15.377Z,100159.25
2019-01-16T22:27:04.285Z,100165.59
2019-01-16T22:29:50.970Z,100154.60
2019-01-16T22:32:54.749Z,100167.91
2019-01-16T22:35:48.806Z,100161.45
2019-01-16T22:38:36.108Z,100158.78
2019-01-16T22:41:33.277Z,100160.94
2019-01-16T22:44:33.432Z,100160.27
2019-01-16T22:47:12.326Z,100161.95
2019-01-16T22:49:59.001Z,100168.95
2019-01-16T22:52:45.737Z,100165.63
2019-01-16T22:55:25.339Z,100176.91
2019-01-16T22:58:03.267Z,100183.09
2019-01-16T23:00:58.338Z,100191.59
2019-01-16T23:03:55.421Z,100194.60
2019-01-16T23:06:42.309Z,100185.76
2019-01-16T23:09:32.163Z,100179.61
2019-01-16T23:12:15.951Z,100182.59
2019-01-16T23:14:57.049Z,100176.78
2019-01-16T23:17:43.931Z,100173.97
2019-01-16T23:20:30.640Z,100165.28
2019-01-16T23:23:27.803Z,100182.27
2019-01-16T23:26:22.709Z,100187.95
2019-01-16T23:29:05.976Z,100176.09
2019-01-16T23:31:51.825Z,100179.26
2019-01-16T23:34:53.507Z,100188.22
2019-01-16T23:37:55.029Z,100192.56
2019-01-16T23:40:38.825Z,100192.38
2019-01-16T23:43:25.577Z,100205.17
2019-01-16T23:46:17.659Z,100202.52
2019-01-16T23:49:11.734Z,100216.67
2019-01-16T23:51:59.733Z,100207.91
2019-01-16T23:54:53.863Z,100206.55
2019-01-16T23:57:48.358Z,100215.23
